Time;durP1;ratioP1;P1;durP2;ratioP2;P2;SDS_P1;SDS_P2;PMS_P1;PMS_P2;Temp;Humidity;BMP_temperature;BMP_pressure;BME280_temperature;BME280_humidity;BME280_pressure;Samples;Min_cycle;Max_cycle;Signal;HPM_P1;HPM_P2
2021/11/21 00:02:08;;;;;;;19.30;6.10;;;;;;;8.40;72.86;100054.71;102846;1312;25430;-60
2021/11/21 00:04:40;;;;;;;18.40;5.80;;;;;;;8.38;72.94;100054.00;102823;1312;22577;-63
2021/11/21 00:07:11;;;;;;;18.40;5.90;;;;;;;8.38;73.08;100051.41;102777;1312;22762;-62
2021/11/21 00:09:42;;;;;;;16.50;5.60;;;;;;;8.37;73.05;100050.83;102804;1317;22593;-58
2021/11/21 00:12:14;;;;;;;16.20;5.30;;;;;;;8.37;73.14;100044.95;102720;1316;22559;-65
2021/11/21 00:14:45;;;;;;;17.40;5.60;;;;;;;8.36;73.10;100044.34;102689;1318;22668;-61
2021/11/21 00:17:16;;;;;;;18.70;5.90;;;;;;;8.36;73.11;100040.45;103824;1312;23135;-62
2021/11/21 00:19:48;;;;;;;18.30;6.00;;;;;;;8.36;73.24;100035.60;102577;1312;25328;-61
2021/11/21 00:22:19;;;;;;;17.60;5.80;;;;;;;8.36;73.12;100034.92;102801;1310;24727;-59
2021/11/21 00:24:52;;;;;;;16.70;5.50;;;;;;;8.37;73.32;100031.86;102735;1312;22582;-60
2021/11/21 00:27:23;;;;;;;20.00;6.30;;;;;;;8.36;73.24;100030.04;102893;1312;22566;-60
2021/11/21 00:29:55;;;;;;;19.30;6.20;;;;;;;8.37;73.31;100029.64;102850;1318;25315;-62
2021/11/21 00:32:27;;;;;;;17.40;6.50;;;;;;;8.37;73.30;100025.09;103114;1312;22735;-62
2021/11/21 00:34:59;;;;;;;17.30;6.30;;;;;;;8.36;73.37;100025.73;102929;1312;24321;-60
2021/11/21 00:37:30;;;;;;;17.30;5.80;;;;;;;8.37;73.33;100019.83;102815;1312;25400;-59
2021/11/21 00:40:01;;;;;;;21.60;6.80;;;;;;;8.37;73.33;100013.70;102840;1312;22624;-62
2021/11/21 00:42:34;;;;;;;16.10;5.10;;;;;;;8.36;73.38;100007.39;102888;1312;22839;-61
2021/11/21 00:45:08;;;;;;;19.20;5.80;;;;;;;8.36;73.48;100007.32;102762;1313;22583;-62
2021/11/21 00:47:40;;;;;;;16.80;6.00;;;;;;;8.36;73.38;100003.67;102801;1318;22784;-62
2021/11/21 00:50:14;;;;;;;19.40;6.30;;;;;;;8.36;73.39;99996.95;102903;1312;22555;-61
2021/11/21 00:52:46;;;;;;;16.00;6.10;;;;;;;8.35;73.34;99990.12;102904;1317;25342;-62
2021/11/21 00:55:24;;;;;;;17.50;6.10;;;;;;;8.36;73.50;99989.77;102822;1312;25400;-62
2021/11/21 00:57:55;;;;;;;16.00;5.10;;;;;;;8.34;73.29;99985.38;102886;1316;24855;-62
2021/11/21 01:00:26;;;;;;;15.80;6.00;;;;;;;8.34;73.40;99984.71;102833;1312;22606;-61
2021/11/21 01:02:58;;;;;;;18.40;5.80;;;;;;;8.34;73.38;99978.24;102858;1318;22665;-61
2021/11/21 01:05:29;;;;;;;15.00;5.30;;;;;;;8.34;73.55;99978.39;102852;1312;23711;-59
2021/11/21 01:08:00;;;;;;;17.20;6.00;;;;;;;8.33;73.48;99977.98;102894;1319;22609;-62
2021/11/21 01:10:32;;;;;;;15.90;4.70;;;;;;;8.34;73.60;99971.61;102770;1312;24317;-62
2021/11/21 01:13:03;;;;;;;18.40;5.00;;;;;;;8.34;73.56;99975.41;102782;1312;22670;-60
2021/11/21 01:15:36;;;;;;;13.60;4.10;;;;;;;8.33;73.54;99973.23;102722;1312;25326;-60
2021/11/21 01:18:08;;;;;;;17.80;5.80;;;;;;;8.33;73.71;99971.55;102861;1319;24210;-61
2021/11/21 01:20:41;;;;;;;16.20;5.70;;;;;;;8.33;73.67;99972.10;102823;1312;22655;-59
2021/11/21 01:23:14;;;;;;;16.20;5.70;;;;;;;8.32;73.60;99970.36;102805;1312;22577;-61
2021/11/21 01:25:48;;;;;;;14.60;5.00;;;;;;;8.33;73.65;99966.73;102943;1313;25337;-62
2021/11/21 01:28:19;;;;;;;14.30;4.60;;;;;;;8.33;73.57;99964.56;102869;1312;25501;-61
2021/11/21 01:30:51;;;;;;;17.30;5.10;;;;;;;8.32;73.57;99964.38;102727;1316;22640;-61
2021/11/21 01:33:23;;;;;;;16.40;5.00;;;;;;;8.32;73.66;99962.02;102945;1312;22592;-61
2021/11/21 01:35:54;;;;;;;16.30;5.10;;;;;;;8.31;73.54;99959.08;102987;1312;25264;-60
2021/11/21 01:38:26;;;;;;;13.80;5.10;;;;;;;8.30;73.54;99952.20;102764;1312;22581;-62
2021/11/21 01:40:58;;;;;;;12.60;4.40;;;;;;;8.30;73.60;99941.84;103144;1317;22595;-62
2021/11/21 01:43:29;;;;;;;14.70;4.90;;;;;;;8.29;73.50;99934.14;103184;1312;24684;-61
2021/11/21 01:46:04;;;;;;;16.70;6.00;;;;;;;8.29;73.63;99928.03;102704;1312;25425;-61
2021/11/21 01:48:36;;;;;;;18.00;5.00;;;;;;;8.30;73.57;99928.64;102667;1317;22558;-59
2021/11/21 01:51:11;;;;;;;19.40;5.60;;;;;;;8.29;73.55;99925.55;102800;1314;25551;-61
2021/11/21 01:53:42;;;;;;;16.40;5.50;;;;;;;8.30;73.75;99919.23;102893;1319;23963;-60
2021/11/21 01:56:13;;;;;;;14.90;5.60;;;;;;;8.30;73.56;99912.47;102776;1312;22848;-61
2021/11/21 01:58:44;;;;;;;19.90;7.00;;;;;;;8.30;73.57;99911.76;102835;1312;25340;-60
2021/11/21 02:01:16;;;;;;;19.90;6.10;;;;;;;8.30;73.60;99906.91;102757;1316;22586;-61
2021/11/21 02:03:48;;;;;;;19.70;6.70;;;;;;;8.30;73.62;99901.20;102899;1317;22574;-62
2021/11/21 02:06:20;;;;;;;15.30;5.90;;;;;;;8.30;73.48;99903.92;102922;1312;24258;-61
2021/11/21 02:08:56;;;;;;;16.40;5.70;;;;;;;8.30;73.43;99903.20;103000;1312;24031;-61
2021/11/21 02:11:28;;;;;;;14.90;5.50;;;;;;;8.30;73.53;99899.07;102783;1312;25358;-61
2021/11/21 02:14:00;;;;;;;19.10;6.50;;;;;;;8.29;73.51;99902.19;102825;1312;22641;-61
2021/11/21 02:16:33;;;;;;;18.90;6.30;;;;;;;8.30;73.83;99907.50;102855;1319;25124;-62
2021/11/21 02:19:04;;;;;;;18.30;6.70;;;;;;;8.29;73.86;99904.36;102985;1312;22580;-61
2021/11/21 02:21:36;;;;;;;17.10;6.20;;;;;;;8.30;73.79;99904.58;102725;1317;22604;-61
2021/11/21 02:24:07;;;;;;;16.80;5.60;;;;;;;8.31;73.99;99903.33;102724;1312;24032;-61
2021/11/21 02:26:38;;;;;;;18.30;6.30;;;;;;;8.32;73.94;99902.05;102888;1313;22614;-62
2021/11/21 02:29:11;;;;;;;16.80;6.00;;;;;;;8.33;73.80;99907.11;102694;1312;24201;-62
2021/11/21 02:31:43;;;;;;;16.50;5.70;;;;;;;8.33;73.94;99900.44;102794;1316;22638;-59
2021/11/21 02:34:14;;;;;;;16.30;5.30;;;;;;;8.32;74.00;99897.95;102860;1313;22647;-60
2021/11/21 02:36:47;;;;;;;17.00;5.70;;;;;;;8.32;74.00;99898.20;102747;1313;22637;-62
2021/11/21 02:39:18;;;;;;;18.40;6.30;;;;;;;8.32;74.05;99895.33;103136;1312;25391;-62
2021/11/21 02:41:49;;;;;;;16.40;5.60;;;;;;;8.33;74.15;99889.62;103070;1313;25419;-63
2021/11/21 02:44:20;;;;;;;17.30;6.20;;;;;;;8.34;74.22;99883.59;102759;1312;22665;-61
2021/11/21 02:46:52;;;;;;;17.80;6.30;;;;;;;8.33;74.13;99873.70;102838;1312;24212;-63
2021/11/21 02:49:23;;;;;;;18.40;6.90;;;;;;;8.33;74.16;99869.77;103042;1312;25433;-60
2021/11/21 02:51:56;;;;;;;18.50;6.30;;;;;;;8.33;74.21;99864.84;102878;1313;22592;-62
2021/11/21 02:54:27;;;;;;;18.10;6.40;;;;;;;8.32;74.17;99859.77;102786;1312;25493;-62
2021/11/21 02:56:58;;;;;;;18.20;5.90;;;;;;;8.30;74.16;99859.88;102878;1313;22607;-61
2021/11/21 02:59:33;;;;;;;15.90;6.70;;;;;;;8.29;74.09;99854.15;102769;1313;22648;-60
2021/11/21 03:02:05;;;;;;;19.70;6.90;;;;;;;8.29;74.22;99854.80;102681;1312;24267;-62
2021/11/21 03:04:36;;;;;;;17.50;6.00;;;;;;;8.28;74.17;99857.90;102877;1312;24240;-61
2021/11/21 03:07:09;;;;;;;18.80;6.20;;;;;;;8.28;74.38;99853.86;102810;1312;22555;-60
2021/11/21 03:09:40;;;;;;;17.70;5.90;;;;;;;8.27;74.30;99851.92;102935;1318;25499;-62
2021/11/21 03:12:13;;;;;;;17.60;6.40;;;;;;;8.25;74.30;99843.44;102960;1312;23137;-62
2021/11/21 03:14:44;;;;;;;17.80;6.40;;;;;;;8.24;74.31;99833.85;102876;1317;22650;-62
2021/11/21 03:17:15;;;;;;;19.10;6.20;;;;;;;8.25;74.37;99838.77;102701;1312;22577;-59
2021/11/21 03:19:47;;;;;;;18.80;7.10;;;;;;;8.25;74.37;99838.59;102905;1312;23985;-61
2021/11/21 03:22:18;;;;;;;17.60;6.30;;;;;;;8.26;74.36;99836.52;103148;1313;22576;-60
2021/11/21 03:24:49;;;;;;;17.50;6.80;;;;;;;8.25;74.39;99833.02;102867;1316;22730;-61
2021/11/21 03:27:20;;;;;;;19.80;6.10;;;;;;;8.26;74.49;99836.56;102816;1312;22593;-60
2021/11/21 03:29:51;;;;;;;18.90;6.80;;;;;;;8.26;74.49;99834.71;102835;1316;25381;-62
2021/11/21 03:32:23;;;;;;;19.00;6.60;;;;;;;8.26;74.53;99834.81;102831;1313;24250;-60
2021/11/21 03:34:54;;;;;;;17.70;6.80;;;;;;;8.25;74.61;99832.33;102823;1313;22900;-61
2021/11/21 03:37:26;;;;;;;16.60;6.00;;;;;;;8.24;74.48;99833.47;102846;1312;22578;-61
2021/11/21 03:39:57;;;;;;;18.70;6.60;;;;;;;8.22;74.49;99830.20;102748;1312;333926;-62
2021/11/21 03:42:29;;;;;;;19.30;7.20;;;;;;;8.23;74.63;99831.93;102780;1316;22648;-59
2021/11/21 03:45:00;;;;;;;21.00;7.50;;;;;;;8.21;74.47;99830.98;102856;1316;25232;-61
2021/11/21 03:47:31;;;;;;;19.60;7.10;;;;;;;8.21;74.63;99825.27;103168;1312;22583;-60
2021/11/21 03:50:04;;;;;;;18.60;7.60;;;;;;;8.21;74.66;99822.23;102889;1312;25390;-62
2021/11/21 03:52:35;;;;;;;17.10;7.30;;;;;;;8.22;74.75;99818.95;103054;1312;25303;-61
2021/11/21 03:55:07;;;;;;;20.70;7.80;;;;;;;8.21;74.64;99817.44;102828;1312;22606;-60
2021/11/21 03:57:39;;;;;;;19.50;7.40;;;;;;;8.19;74.74;99810.72;103319;1312;23148;-60
2021/11/21 04:00:16;;;;;;;20.60;8.20;;;;;;;8.18;74.81;99807.02;103058;1316;23207;-63
2021/11/21 04:02:48;;;;;;;19.10;7.60;;;;;;;8.16;74.85;99803.48;102713;1319;22600;-61
2021/11/21 04:05:20;;;;;;;19.60;8.00;;;;;;;8.15;74.64;99800.08;103302;1312;25229;-61
2021/11/21 04:07:51;;;;;;;21.90;7.70;;;;;;;8.11;74.73;99797.32;102825;1312;25391;-59
2021/11/21 04:10:22;;;;;;;25.20;9.30;;;;;;;8.08;74.77;99796.22;102873;1316;22647;-62
2021/11/21 04:12:53;;;;;;;20.50;7.80;;;;;;;8.03;74.83;99797.64;103091;1312;24305;-62
2021/11/21 04:15:24;;;;;;;22.20;8.10;;;;;;;7.99;74.97;99802.45;102847;1312;25249;-62
2021/11/21 04:17:55;;;;;;;20.30;7.80;;;;;;;7.97;74.94;99800.33;102694;1319;22592;-60
2021/11/21 04:20:28;;;;;;;21.50;7.90;;;;;;;7.95;75.05;99801.24;102704;1312;24467;-61
2021/11/21 04:22:59;;;;;;;23.10;7.40;;;;;;;7.92;75.08;99802.34;103655;1303;24333;-59
2021/11/21 04:25:31;;;;;;;24.20;7.50;;;;;;;7.89;75.18;99801.67;102911;1317;22663;-57
2021/11/21 04:28:02;;;;;;;20.80;7.30;;;;;;;7.87;75.23;99798.13;102835;1312;22577;-59
2021/11/21 04:30:33;;;;;;;24.40;7.90;;;;;;;7.85;75.13;99797.13;102985;1312;22566;-59
2021/11/21 04:33:04;;;;;;;19.40;7.80;;;;;;;7.84;75.20;99792.30;102687;1318;25567;-58
2021/11/21 04:35:36;;;;;;;23.20;7.90;;;;;;;7.83;75.17;99788.05;102895;1318;24900;-59
2021/11/21 04:38:09;;;;;;;24.90;8.70;;;;;;;7.82;75.32;99783.42;102927;1312;22990;-58
2021/11/21 04:40:40;;;;;;;22.10;8.30;;;;;;;7.80;75.32;99782.57;103314;1312;22632;-58
2021/11/21 04:43:11;;;;;;;23.00;8.40;;;;;;;7.78;75.33;99780.86;102902;1311;24266;-59
2021/11/21 04:45:42;;;;;;;20.50;7.60;;;;;;;7.75;75.41;99777.41;102660;1313;22586;-59
2021/11/21 04:48:14;;;;;;;24.00;8.70;;;;;;;7.72;75.33;99779.89;106577;1317;22432;-59
2021/11/21 04:50:45;;;;;;;20.20;7.80;;;;;;;7.68;75.44;99774.77;106685;1318;22424;-59
2021/11/21 04:53:16;;;;;;;23.00;7.50;;;;;;;7.67;75.53;99769.64;106614;1315;22550;-59
2021/11/21 04:55:47;;;;;;;18.10;6.60;;;;;;;7.66;75.56;99761.27;106580;1314;22950;-59
2021/11/21 04:58:18;;;;;;;21.60;8.70;;;;;;;7.63;75.50;99759.34;103462;1312;25387;-59
2021/11/21 05:00:50;;;;;;;20.40;7.50;;;;;;;7.62;75.57;99753.37;102702;1311;22715;-59
2021/11/21 05:03:22;;;;;;;18.80;7.30;;;;;;;7.61;75.63;99756.00;102797;1314;26499;-59
2021/11/21 05:05:53;;;;;;;25.70;8.30;;;;;;;7.60;75.81;99754.67;102910;1313;22595;-58
2021/11/21 05:08:25;;;;;;;22.30;7.40;;;;;;;7.60;75.76;99756.12;102758;1313;24530;-59
2021/11/21 05:10:57;;;;;;;20.30;8.40;;;;;;;7.58;75.67;99751.85;102921;1312;24535;-58
2021/11/21 05:13:28;;;;;;;20.10;8.40;;;;;;;7.56;75.75;99748.37;102924;1318;23372;-59
2021/11/21 05:15:59;;;;;;;18.80;7.60;;;;;;;7.55;75.85;99741.77;102743;1314;22582;-58
2021/11/21 05:18:30;;;;;;;21.60;9.50;;;;;;;7.52;75.91;99738.27;102713;1316;22567;-59
2021/11/21 05:21:01;;;;;;;20.70;8.10;;;;;;;7.50;75.97;99728.98;102721;1315;23144;-59
2021/11/21 05:23:34;;;;;;;20.30;8.60;;;;;;;7.47;75.98;99723.63;102856;1317;22578;-59
2021/11/21 05:26:05;;;;;;;22.90;8.30;;;;;;;7.45;76.02;99718.27;102862;1312;22578;-60
2021/11/21 05:28:37;;;;;;;23.70;9.30;;;;;;;7.43;76.04;99718.69;102894;1312;22583;-58
2021/11/21 05:31:09;;;;;;;23.80;9.60;;;;;;;7.42;76.10;99716.24;102902;1317;24333;-59
2021/11/21 05:33:40;;;;;;;27.10;10.40;;;;;;;7.41;76.15;99712.98;102673;1311;22651;-60
2021/11/21 05:36:11;;;;;;;26.20;10.40;;;;;;;7.39;76.00;99717.53;102737;1311;25288;-59
2021/11/21 05:38:42;;;;;;;25.60;10.60;;;;;;;7.36;76.06;99714.19;103168;1318;22705;-59
2021/11/21 05:41:14;;;;;;;23.80;9.80;;;;;;;7.33;76.11;99705.89;102806;1311;23132;-59
2021/11/21 05:43:45;;;;;;;25.60;10.60;;;;;;;7.31;76.19;99701.55;102961;1312;22570;-58
2021/11/21 05:46:17;;;;;;;28.70;11.10;;;;;;;7.28;76.28;99695.17;102918;1312;22568;-58
2021/11/21 05:48:47;;;;;;;25.40;11.00;;;;;;;7.26;76.11;99693.55;102637;1314;22579;-59
2021/11/21 05:51:18;;;;;;;26.00;10.80;;;;;;;7.22;76.19;99695.94;102749;1313;23076;-59
2021/11/21 05:53:52;;;;;;;25.20;9.70;;;;;;;7.19;76.35;99697.45;102669;1317;22674;-58
2021/11/21 05:56:23;;;;;;;24.60;10.50;;;;;;;7.17;76.44;99694.91;102796;1314;22762;-59
2021/11/21 05:58:55;;;;;;;25.80;10.60;;;;;;;7.16;76.38;99693.10;102690;1314;22703;-58
2021/11/21 06:01:25;;;;;;;28.60;11.20;;;;;;;7.11;76.37;99696.48;102950;1317;22637;-59
2021/11/21 06:03:58;;;;;;;27.30;11.70;;;;;;;7.09;76.43;99699.83;102763;1313;25264;-60
2021/11/21 06:06:29;;;;;;;27.00;10.30;;;;;;;7.08;76.45;99703.00;102781;1316;25247;-61
2021/11/21 06:09:02;;;;;;;26.60;10.30;;;;;;;7.05;76.57;99698.54;102891;1313;25403;-59
2021/11/21 06:11:33;;;;;;;28.00;11.20;;;;;;;7.03;76.67;99701.69;102962;1313;25576;-58
2021/11/21 06:14:04;;;;;;;24.20;10.30;;;;;;;6.99;76.61;99704.42;102885;1313;24308;-57
2021/11/21 06:16:36;;;;;;;25.60;10.50;;;;;;;6.97;76.69;99700.42;103091;1312;25351;-60
2021/11/21 06:19:07;;;;;;;26.20;10.90;;;;;;;6.95;76.71;99702.40;102716;1318;22671;-59
2021/11/21 06:21:38;;;;;;;25.80;11.60;;;;;;;6.94;76.88;99699.25;102776;1314;22580;-58
2021/11/21 06:24:09;;;;;;;26.50;11.60;;;;;;;6.95;76.89;99696.80;102667;1313;24419;-59
2021/11/21 06:26:42;;;;;;;25.50;10.20;;;;;;;6.93;76.89;99698.36;103120;1318;23098;-59
2021/11/21 06:29:13;;;;;;;22.30;9.50;;;;;;;6.92;77.02;99695.90;102773;1313;22596;-60
2021/11/21 06:31:44;;;;;;;26.90;10.80;;;;;;;6.89;77.07;99698.06;103074;1316;22643;-58
2021/11/21 06:34:16;;;;;;;26.90;10.50;;;;;;;6.89;77.06;99696.23;103113;1315;23094;-61
2021/11/21 06:36:47;;;;;;;25.30;10.10;;;;;;;6.87;77.21;99702.85;102726;1314;22986;-58
2021/11/21 06:39:18;;;;;;;24.80;9.60;;;;;;;6.85;77.16;99703.41;102825;1315;22613;-58
2021/11/21 06:41:50;;;;;;;29.70;10.50;;;;;;;6.85;77.25;99700.03;102925;1311;22592;-60
2021/11/21 06:44:21;;;;;;;25.40;9.60;;;;;;;6.85;77.31;99704.41;102936;1311;22557;-57
2021/11/21 06:46:52;;;;;;;28.50;11.40;;;;;;;6.84;77.40;99700.80;102928;1313;23020;-57
2021/11/21 06:49:23;;;;;;;24.60;10.20;;;;;;;6.82;77.43;99702.87;102732;1313;23036;-59
2021/11/21 06:51:54;;;;;;;26.70;10.80;;;;;;;6.83;77.51;99706.13;102727;1317;23037;-57
2021/11/21 06:54:26;;;;;;;28.40;12.30;;;;;;;6.83;77.65;99702.30;102735;1317;24766;-59
2021/11/21 06:56:57;;;;;;;27.80;12.70;;;;;;;6.84;77.65;99696.58;102725;1317;22561;-58
2021/11/21 06:59:28;;;;;;;24.20;10.70;;;;;;;6.84;77.58;99699.75;102734;1314;22672;-58
2021/11/21 07:01:59;;;;;;;26.00;12.00;;;;;;;6.84;77.74;99701.57;102869;1316;23099;-58
2021/11/21 07:04:31;;;;;;;26.60;10.00;;;;;;;6.85;77.79;99700.91;102763;1314;24284;-58
2021/11/21 07:07:07;;;;;;;31.70;13.00;;;;;;;6.85;77.73;99700.12;102913;1317;22666;-59
2021/11/21 07:09:41;;;;;;;29.70;13.10;;;;;;;6.85;77.94;99692.20;102847;1316;22864;-58
2021/11/21 07:12:13;;;;;;;28.50;12.20;;;;;;;6.85;77.91;99687.66;102773;1318;22563;-59
2021/11/21 07:14:43;;;;;;;30.30;12.40;;;;;;;6.86;78.08;99687.23;102738;1321;24354;-59
2021/11/21 07:17:15;;;;;;;26.90;12.50;;;;;;;6.86;78.03;99687.60;102886;1317;22630;-61
2021/11/21 07:19:46;;;;;;;29.80;12.80;;;;;;;6.86;78.18;99686.27;102759;1314;22658;-58
2021/11/21 07:22:17;;;;;;;30.50;12.90;;;;;;;6.87;78.14;99686.45;102880;1318;23272;-59
2021/11/21 07:24:49;;;;;;;31.10;12.90;;;;;;;6.87;78.22;99683.19;102904;1312;23007;-59
2021/11/21 07:27:20;;;;;;;32.40;13.80;;;;;;;6.87;78.32;99683.89;103002;1317;25342;-58
2021/11/21 07:29:51;;;;;;;32.10;15.20;;;;;;;6.88;78.38;99683.61;102939;1318;22571;-60
2021/11/21 07:32:22;;;;;;;32.90;13.60;;;;;;;6.89;78.50;99685.45;102848;1319;24244;-59
2021/11/21 07:34:53;;;;;;;31.80;15.00;;;;;;;6.91;78.50;99688.56;103053;1317;25426;-59
2021/11/21 07:37:25;;;;;;;31.70;14.60;;;;;;;6.91;78.61;99684.09;103017;1312;25335;-59
2021/11/21 07:39:57;;;;;;;37.70;16.60;;;;;;;6.93;78.60;99680.45;102933;1315;22630;-58
2021/11/21 07:42:29;;;;;;;35.00;14.30;;;;;;;6.96;78.81;99680.78;102839;1316;22580;-58
2021/11/21 07:45:00;;;;;;;35.70;15.30;;;;;;;7.00;78.79;99683.05;102829;1317;24346;-58
2021/11/21 07:47:31;;;;;;;35.60;15.90;;;;;;;7.03;78.75;99684.33;102927;1317;23036;-57
2021/11/21 07:50:03;;;;;;;32.70;14.10;;;;;;;7.08;78.89;99685.55;102872;1317;25472;-58
2021/11/21 07:52:34;;;;;;;34.10;15.90;;;;;;;7.11;78.96;99686.84;102861;1317;22640;-60
2021/11/21 07:55:07;;;;;;;34.70;15.20;;;;;;;7.14;78.81;99691.44;102828;1312;22757;-59
2021/11/21 07:57:39;;;;;;;34.80;16.00;;;;;;;7.17;78.85;99689.77;102771;1316;24388;-59
2021/11/21 08:00:15;;;;;;;30.80;14.80;;;;;;;7.20;78.86;99690.73;103085;1314;22567;-58
2021/11/21 08:02:47;;;;;;;37.60;17.30;;;;;;;7.23;78.94;99691.47;102793;1312;24237;-62
2021/11/21 08:05:19;;;;;;;32.10;15.70;;;;;;;7.27;79.02;99687.96;102759;1313;24255;-59
2021/11/21 08:07:51;;;;;;;30.20;13.80;;;;;;;7.30;78.96;99689.70;102772;1312;25333;-60
2021/11/21 08:10:40;;;;;;;32.20;14.60;;;;;;;7.32;78.96;99689.97;102624;1315;22569;-60
2021/11/21 08:13:11;;;;;;;31.20;13.70;;;;;;;7.34;79.03;99687.63;102717;1312;22613;-60
2021/11/21 08:15:46;;;;;;;27.40;12.30;;;;;;;7.37;79.04;99683.41;102686;1314;22595;-60
2021/11/21 08:18:18;;;;;;;30.00;13.60;;;;;;;7.43;78.89;99687.36;102692;1318;24337;-61
2021/11/21 08:20:49;;;;;;;30.60;13.50;;;;;;;7.49;78.84;99684.44;102673;1314;23905;-61
2021/11/21 08:23:20;;;;;;;29.30;11.60;;;;;;;7.55;78.71;99685.54;103110;1313;26717;-61
2021/11/21 08:25:52;;;;;;;28.20;12.90;;;;;;;7.62;78.54;99682.68;102773;1312;22626;-60
2021/11/21 08:28:24;;;;;;;24.20;11.00;;;;;;;7.69;78.44;99687.49;102748;1312;22621;-60
2021/11/21 08:30:55;;;;;;;24.70;10.70;;;;;;;7.76;78.29;99686.09;103096;1312;22796;-60
2021/11/21 08:33:27;;;;;;;25.10;10.70;;;;;;;7.85;78.01;99682.47;102851;1315;22652;-60
2021/11/21 08:35:58;;;;;;;22.20;9.30;;;;;;;7.94;77.86;99679.88;103035;1318;25398;-61
2021/11/21 08:38:30;;;;;;;24.80;11.70;;;;;;;8.00;77.45;99682.08;102809;1313;23696;-61
2021/11/21 08:41:02;;;;;;;22.60;10.10;;;;;;;8.06;77.41;99684.37;102844;1312;23185;-61
2021/11/21 08:43:33;;;;;;;21.80;9.20;;;;;;;8.12;77.33;99682.80;102841;1317;22580;-61
2021/11/21 08:46:04;;;;;;;23.40;9.80;;;;;;;8.18;77.09;99689.11;102615;1312;22595;-60
2021/11/21 08:48:35;;;;;;;23.90;10.30;;;;;;;8.23;76.71;99686.21;102765;1315;25387;-61
2021/11/21 08:51:07;;;;;;;20.00;8.90;;;;;;;8.27;76.29;99684.30;102876;1316;24439;-60
2021/11/21 08:53:39;;;;;;;21.60;8.60;;;;;;;8.28;76.04;99677.55;102781;1318;22580;-62
2021/11/21 08:56:10;;;;;;;23.00;9.90;;;;;;;8.30;76.08;99677.09;102936;1315;25317;-61
2021/11/21 08:58:59;;;;;;;24.30;9.50;;;;;;;8.30;75.86;99675.88;102637;1317;22597;-60
2021/11/21 09:01:31;;;;;;;25.10;10.40;;;;;;;8.29;75.68;99680.05;102752;1312;22560;-60
2021/11/21 09:04:02;;;;;;;22.80;9.60;;;;;;;8.27;75.47;99677.77;102681;1314;25460;-60
2021/11/21 09:06:34;;;;;;;21.50;9.30;;;;;;;8.24;75.45;99679.82;104253;1312;22597;-60
2021/11/21 09:09:06;;;;;;;23.80;10.00;;;;;;;8.21;75.35;99682.80;102774;1315;22579;-60
2021/11/21 09:11:37;;;;;;;23.20;10.30;;;;;;;8.20;75.37;99683.34;102856;1314;22685;-61
2021/11/21 09:14:10;;;;;;;27.00;11.30;;;;;;;8.18;75.23;99680.58;102769;1313;25614;-61
2021/11/21 09:16:42;;;;;;;25.30;10.80;;;;;;;8.17;75.38;99678.02;103025;1312;25592;-62
2021/11/21 09:19:14;;;;;;;26.40;10.60;;;;;;;8.18;75.37;99673.39;102855;1318;128255;-61
2021/11/21 09:21:45;;;;;;;23.20;10.50;;;;;;;8.19;75.29;99673.86;102951;1312;24308;-62
2021/11/21 09:24:17;;;;;;;22.00;10.20;;;;;;;8.18;75.07;99667.79;102923;1312;22762;-61
2021/11/21 09:26:48;;;;;;;22.80;10.40;;;;;;;8.17;75.01;99671.20;102891;1312;22603;-61
2021/11/21 09:29:19;;;;;;;23.30;9.20;;;;;;;8.18;75.33;99673.75;102726;1313;26618;-61
2021/11/21 09:31:51;;;;;;;23.10;9.80;;;;;;;8.19;75.26;99679.73;102614;1311;24292;-61
2021/11/21 09:34:23;;;;;;;21.10;9.70;;;;;;;8.18;74.93;99675.48;102815;1313;24241;-61
2021/11/21 09:36:54;;;;;;;23.10;10.40;;;;;;;8.19;75.09;99668.61;102676;1314;22519;-61
2021/11/21 09:39:26;;;;;;;23.30;11.20;;;;;;;8.21;75.12;99665.56;102770;1312;22580;-62
2021/11/21 09:41:57;;;;;;;25.30;11.30;;;;;;;8.23;74.97;99663.52;103028;1318;24329;-62
2021/11/21 09:44:29;;;;;;;23.50;10.50;;;;;;;8.24;75.18;99656.52;102860;1316;22661;-62
2021/11/21 09:47:01;;;;;;;26.10;10.80;;;;;;;8.25;75.02;99654.11;102806;1312;23185;-61
2021/11/21 09:49:33;;;;;;;24.90;11.10;;;;;;;8.26;74.93;99648.74;102963;1317;24478;-62
2021/11/21 09:52:05;;;;;;;23.30;10.30;;;;;;;8.28;74.75;99651.41;102578;1315;24242;-62
2021/11/21 09:54:37;;;;;;;26.70;11.40;;;;;;;8.29;74.58;99647.58;102660;1315;22583;-62
2021/11/21 09:57:09;;;;;;;22.80;9.80;;;;;;;8.30;74.80;99644.02;102888;1316;22641;-61
2021/11/21 09:59:59;;;;;;;22.50;10.20;;;;;;;8.32;74.88;99649.13;102983;1316;25377;-62
2021/11/21 10:02:40;;;;;;;25.50;11.60;;;;;;;8.35;74.56;99643.99;103040;1317;22622;-60
2021/11/21 10:05:21;;;;;;;23.50;10.60;;;;;;;8.33;74.34;99645.20;102879;1312;22638;-60
2021/11/21 10:08:04;;;;;;;27.20;11.40;;;;;;;8.31;74.35;99644.95;102744;1313;25276;-60
2021/11/21 10:10:42;;;;;;;23.70;10.80;;;;;;;8.31;74.32;99644.52;102818;1312;26785;-59
2021/11/21 10:13:31;;;;;;;28.00;12.30;;;;;;;8.32;74.53;99638.99;102685;1317;24240;-59
2021/11/21 10:16:27;;;;;;;23.30;11.00;;;;;;;8.34;74.47;99638.84;102942;1315;23030;-59
2021/11/21 10:19:02;;;;;;;26.20;11.70;;;;;;;8.37;74.43;99639.45;102841;1315;35280;-59
2021/11/21 10:21:35;;;;;;;25.60;10.50;;;;;;;8.40;74.62;99635.86;102845;1312;24178;-59
2021/11/21 10:24:23;;;;;;;27.30;12.00;;;;;;;8.43;74.19;99630.69;102861;1316;22687;-59
2021/11/21 10:27:07;;;;;;;26.30;11.50;;;;;;;8.44;74.21;99631.63;102879;1318;22577;-58
2021/11/21 10:29:40;;;;;;;24.50;10.90;;;;;;;8.46;73.88;99634.48;103003;1312;25373;-59
2021/11/21 10:32:22;;;;;;;24.70;10.10;;;;;;;8.46;73.84;99630.34;102719;1312;24334;-59
2021/11/21 10:34:55;;;;;;;23.40;10.60;;;;;;;8.45;73.71;99626.81;102913;1318;22644;-60
2021/11/21 10:37:33;;;;;;;21.70;9.20;;;;;;;8.47;73.80;99626.81;102991;1318;22630;-62
2021/11/21 10:40:08;;;;;;;24.80;11.30;;;;;;;8.48;73.55;99627.52;102784;1312;22815;-60
2021/11/21 10:42:41;;;;;;;26.40;10.80;;;;;;;8.49;73.59;99622.80;102779;1313;24297;-61
2021/11/21 10:45:15;;;;;;;25.00;10.30;;;;;;;8.48;73.59;99619.27;102967;1317;22660;-59
2021/11/21 10:47:49;;;;;;;24.30;9.60;;;;;;;8.46;73.42;99620.23;102940;1319;25284;-59
2021/11/21 10:50:31;;;;;;;24.30;9.70;;;;;;;8.44;73.08;99619.73;102937;1312;22692;-60
2021/11/21 10:53:07;;;;;;;24.10;10.80;;;;;;;8.46;73.28;99619.56;102490;1313;22635;-60
2021/11/21 10:55:40;;;;;;;20.30;8.10;;;;;;;8.50;73.16;99617.58;102731;1317;25341;-61
2021/11/21 10:58:15;;;;;;;22.40;9.00;;;;;;;8.56;72.83;99623.14;102872;1318;24256;-61
2021/11/21 11:00:59;;;;;;;21.20;9.10;;;;;;;8.61;72.81;99623.11;102814;1317;22811;-61
2021/11/21 11:03:30;;;;;;;20.50;8.80;;;;;;;8.68;72.83;99623.04;102852;1316;22594;-60
2021/11/21 11:06:23;;;;;;;21.30;8.30;;;;;;;8.74;72.55;99617.73;102884;1313;24265;-60
2021/11/21 11:09:14;;;;;;;23.00;9.80;;;;;;;8.80;72.34;99614.48;102585;1312;22644;-60
2021/11/21 11:11:45;;;;;;;22.80;8.90;;;;;;;8.82;72.23;99612.50;102947;1313;24435;-61
2021/11/21 11:14:19;;;;;;;22.00;8.80;;;;;;;8.84;72.05;99611.52;102698;1318;24553;-61
2021/11/21 11:16:57;;;;;;;18.00;7.30;;;;;;;8.82;71.60;99606.07;102958;1314;23960;-58
2021/11/21 11:19:30;;;;;;;20.20;7.90;;;;;;;8.82;71.96;99612.60;103339;1313;24139;-58
2021/11/21 11:22:02;;;;;;;23.00;8.90;;;;;;;8.82;71.57;99607.19;103201;1318;22962;-58
2021/11/21 11:24:36;;;;;;;22.20;8.90;;;;;;;8.79;71.27;99607.54;103271;1318;25409;-58
2021/11/21 11:27:26;;;;;;;20.00;7.60;;;;;;;8.77;71.57;99606.45;102957;1315;22779;-59
2021/11/21 11:30:01;;;;;;;21.90;9.10;;;;;;;8.75;71.50;99608.38;103349;1318;22653;-57
2021/11/21 11:32:38;;;;;;;18.40;7.40;;;;;;;8.72;71.40;99607.73;103150;1313;24311;-58
2021/11/21 11:35:30;;;;;;;20.10;8.40;;;;;;;8.70;71.06;99605.83;102982;1318;22559;-59
2021/11/21 11:38:12;;;;;;;19.60;7.80;;;;;;;8.66;71.20;99601.96;99089;1313;5643079;-56
2021/11/21 11:40:54;;;;;;;22.00;8.40;;;;;;;8.64;71.26;99595.09;103142;1317;22623;-59
2021/11/21 11:43:41;;;;;;;18.50;7.30;;;;;;;8.61;71.04;99593.02;103126;1313;22563;-59
2021/11/21 11:46:33;;;;;;;17.00;7.30;;;;;;;8.59;70.96;99592.39;103193;1318;22577;-58
2021/11/21 11:49:07;;;;;;;19.90;8.00;;;;;;;8.56;71.10;99595.67;103370;1312;26204;-57